Airfield :
LOGIN :

Register | Disclaimer

   EN    FR    IT 

 










Legend :    VFR   Marginal VFR   IFR   Intensive IFR   Very Intensive IFR
Visi :
Ceiling :
>= 8 km
>= 3000ft
5 to 8 km
1000 to 3000 ft
1500m to 5 km
500 to 1000 ft
800 to 1500m
200 to 500 ft
< 800m
< 200 ft
Symbols :   Thunderstorms  Fog  Heavy snow  Heavy precipitations  Wind > 20 kt
SIGMETs :     Misc.  Thunderstorms  Icing  Turbulence  Mountain Waves  Volcanic Ashes






- Airport Elevation : 238 ft
- IATA code : FAB


EGLF - Farnborough

CURRENT METAR :
  • 152020Z AUTO 36009KT 6000 -DZRA SCT008/// BKN015/// BKN024/// 06/05 Q1001 RERA

EXPIRED METARs :
  • 151950Z AUTO 36009KT 330V030 7000 -RA BKN012/// OVC016/// 06/05 Q1001 RERA
  • 151920Z AUTO 35013KT 9999 -RA FEW013/// BKN017/// 06/05 Q1001 REDZ
  • 151850Z AUTO 35014KT 9999 -RA SCT015/// BKN024/// BKN041/// 06/05 Q1001
  • 151820Z AUTO 36017KT 340V040 9999 -RA BKN020/// BKN034/// 07/04 Q1001 REUP
  • 151750Z AUTO 36014KT 9999 SCT033/// BKN043/// 07/04 Q1001

TAF AMD TAF EGLF
Valid from the 15 at 18:00 until the 15 at 23:00 UTC


151825Z 1518/1523 01009KT 9999 SCT025
TEMPO 1518/1523 01015G25KT 8000 RA BKN014
PROB30
TEMPO 1518/1521 4000 +RA SHRA
ATIS : +44 09063 800 400 (*282)



MET'MAP, your aeronautical weather chart ! - Copyright ORBIFLY December 2007 - Disclaimer

ORBIFLY MET'MAP TEAM :

Programming & Development : Alexandra Zaïnal
Concept & Development : Baudouin d'Aumeries
Co-Development & Prog : Marc-Olivier Méhu
Technical & hardware support : Manuel Goepfert

Contact : metmap@orbifly.com




SOURCES & CREDITS :

   NOAA